Time;durP1;ratioP1;P1;durP2;ratioP2;P2;SDS_P1;SDS_P2;PMS_P1;PMS_P2;Temp;Humidity;BMP_temperature;BMP_pressure;BME280_temperature;BME280_humidity;BME280_pressure;Samples;Min_cycle;Max_cycle;Signal;HPM_P1;HPM_P2
2022/08/22 00:00:13;;;;;;;3.70;1.58;;;;;;;;;;2053158;28;20526;-81
2022/08/22 00:01:38;;;;;;;2.08;0.93;;;;;;;;;;2057460;28;20019;-83
2022/08/22 00:03:10;;;;;;;2.97;1.15;;;;;;;;;;2053776;28;20126;-82
2022/08/22 00:04:32;;;;;;;3.72;1.17;;;;;;;;;;2053117;28;20023;-83
2022/08/22 00:06:10;;;;;;;4.03;1.30;;;;;;;;;;2054296;28;20413;-82
2022/08/22 00:07:44;;;;;;;2.15;1.10;;;;;;;;;;2053814;28;20185;-83
2022/08/22 00:09:15;;;;;;;2.75;1.23;;;;;;;;;;2055024;28;20476;-83
2022/08/22 00:10:55;;;;;;;3.67;1.67;;;;;;;;;;2054414;28;20038;-82
2022/08/22 00:12:22;;;;;;;2.75;1.55;;;;;;;;;;2052267;28;20043;-82
2022/08/22 00:13:50;;;;;;;2.95;1.33;;;;;;;;;;2055108;28;20114;-83
2022/08/22 00:15:13;;;;;;;2.47;1.35;;;;;;;;;;2054347;28;20027;-82
2022/08/22 00:16:45;;;;;;;3.03;1.30;;;;;;;;;;2051289;28;20388;-83
2022/08/22 00:18:07;;;;;;;2.50;1.40;;;;;;;;;;2053088;28;20043;-84
2022/08/22 00:19:41;;;;;;;5.68;1.30;;;;;;;;;;2057014;28;20035;-83
2022/08/22 00:21:18;;;;;;;4.20;1.40;;;;;;;;;;2047461;29;20416;-82
2022/08/22 00:22:55;;;;;;;2.78;1.70;;;;;;;;;;2043345;28;20024;-83
2022/08/22 00:24:14;;;;;;;2.60;1.38;;;;;;;;;;2052871;28;20520;-82
2022/08/22 00:25:35;;;;;;;2.47;1.20;;;;;;;;;;2045523;29;20036;-82
2022/08/22 00:26:59;;;;;;;3.47;1.50;;;;;;;;;;2045505;29;20027;-82
2022/08/22 00:28:21;;;;;;;2.70;1.45;;;;;;;;;;2045032;28;20039;-81
2022/08/22 00:29:46;;;;;;;4.68;1.60;;;;;;;;;;2054343;28;20027;-82
2022/08/22 00:31:28;;;;;;;4.18;1.38;;;;;;;;;;2052265;28;20031;-82
2022/08/22 00:33:10;;;;;;;3.80;1.50;;;;;;;;;;2053050;28;20043;-82
2022/08/22 00:34:33;;;;;;;2.13;1.30;;;;;;;;;;2047977;28;20031;-82
2022/08/22 00:35:52;;;;;;;;;;;;;;;;;;2046056;28;20054;-82
2022/08/22 00:37:40;;;;;;;2.72;1.45;;;;;;;;;;2048422;28;19957;-81
2022/08/22 00:39:07;;;;;;;2.47;1.25;;;;;;;;;;2045107;29;20437;-82
2022/08/22 00:40:40;;;;;;;2.75;1.50;;;;;;;;;;2056698;28;20500;-83
2022/08/22 00:42:11;;;;;;;2.58;1.40;;;;;;;;;;2049712;28;20035;-81
2022/08/22 00:43:42;;;;;;;3.05;1.42;;;;;;;;;;2055723;28;20030;-82
2022/08/22 00:45:07;;;;;;;3.50;1.58;;;;;;;;;;2054839;28;20024;-82
2022/08/22 00:46:26;;;;;;;2.42;1.60;;;;;;;;;;2047899;29;20028;-82
2022/08/22 00:48:03;;;;;;;3.47;1.75;;;;;;;;;;2046555;29;20025;-83
2022/08/22 00:49:22;;;;;;;2.22;1.42;;;;;;;;;;2046498;29;20071;-83
2022/08/22 00:50:56;;;;;;;3.47;1.15;;;;;;;;;;2055854;28;22463;-83
2022/08/22 00:52:35;;;;;;;3.08;1.33;;;;;;;;;;2048491;28;20024;-83
2022/08/22 00:54:12;;;;;;;5.03;1.58;;;;;;;;;;2053890;28;20035;-81
2022/08/22 00:55:46;;;;;;;3.75;1.73;;;;;;;;;;2049734;29;20453;-85
2022/08/22 00:57:05;;;;;;;6.13;1.70;;;;;;;;;;2052988;28;20416;-85
2022/08/22 00:58:44;;;;;;;2.72;1.65;;;;;;;;;;2056423;28;20412;-84
2022/08/22 01:00:12;;;;;;;4.47;1.50;;;;;;;;;;2046266;28;20035;-84
2022/08/22 01:01:41;;;;;;;3.13;1.42;;;;;;;;;;2051902;28;20066;-85
2022/08/22 01:03:00;;;;;;;3.33;1.58;;;;;;;;;;2051458;28;20625;-84
2022/08/22 01:04:27;;;;;;;2.17;1.40;;;;;;;;;;2048769;29;20039;-84
2022/08/22 01:05:59;;;;;;;2.70;1.38;;;;;;;;;;2055280;28;20110;-83
2022/08/22 01:07:36;;;;;;;4.55;1.63;;;;;;;;;;2049812;28;20130;-84
2022/08/22 01:09:04;;;;;;;1.95;1.33;;;;;;;;;;2050052;28;20039;-84
2022/08/22 01:10:26;;;;;;;6.35;1.30;;;;;;;;;;2055430;28;20038;-83
2022/08/22 01:11:51;;;;;;;2.85;1.55;;;;;;;;;;2052387;28;20036;-84
2022/08/22 01:13:12;;;;;;;4.00;1.52;;;;;;;;;;2058129;28;20040;-83
2022/08/22 01:14:37;;;;;;;5.57;1.73;;;;;;;;;;2057791;28;20019;-84
2022/08/22 01:16:08;;;;;;;3.22;1.73;;;;;;;;;;2055287;28;20015;-83
2022/08/22 01:17:44;;;;;;;2.72;1.40;;;;;;;;;;2064100;28;20106;-85
2022/08/22 01:19:30;;;;;;;4.40;1.70;;;;;;;;;;2069955;28;20035;-86
2022/08/22 01:20:49;;;;;;;2.80;1.63;;;;;;;;;;2069682;28;20031;-86
2022/08/22 01:22:08;;;;;;;3.50;1.42;;;;;;;;;;2064329;28;20027;-85
2022/08/22 01:23:37;;;;;;;3.08;1.77;;;;;;;;;;2068382;28;20031;-85
2022/08/22 01:26:50;;;;;;;3.55;1.55;;;;;;;;;;2072740;28;20030;-61
2022/08/22 01:28:28;;;;;;;4.70;1.70;;;;;;;;;;2071427;28;21060;-60
2022/08/22 01:29:47;;;;;;;3.38;1.80;;;;;;;;;;2071805;28;20478;-61
2022/08/22 01:31:25;;;;;;;2.75;1.50;;;;;;;;;;2069286;28;20038;-61
2022/08/22 01:32:58;;;;;;;3.00;1.73;;;;;;;;;;2070805;28;20069;-61
2022/08/22 01:34:27;;;;;;;3.20;1.80;;;;;;;;;;2071323;28;20038;-61
2022/08/22 01:35:46;;;;;;;3.22;1.50;;;;;;;;;;2072066;28;20030;-59
2022/08/22 01:37:11;;;;;;;5.65;2.05;;;;;;;;;;2072412;28;20022;-61
2022/08/22 01:38:53;;;;;;;4.28;1.40;;;;;;;;;;2069830;28;20116;-61
2022/08/22 01:40:15;;;;;;;2.80;1.50;;;;;;;;;;2071350;28;20026;-61
2022/08/22 01:41:46;;;;;;;2.40;1.55;;;;;;;;;;2071946;28;20103;-61
2022/08/22 01:43:05;;;;;;;3.45;1.42;;;;;;;;;;2069460;28;20030;-61
2022/08/22 01:44:27;;;;;;;5.65;2.10;;;;;;;;;;2072433;28;20537;-61
2022/08/22 01:45:49;;;;;;;4.03;1.98;;;;;;;;;;2070762;28;20351;-61
2022/08/22 01:47:13;;;;;;;3.67;1.40;;;;;;;;;;2071742;28;20425;-61
2022/08/22 01:48:51;;;;;;;2.67;1.67;;;;;;;;;;2070805;28;20041;-61
2022/08/22 01:50:19;;;;;;;3.85;1.80;;;;;;;;;;2071384;28;20113;-60
2022/08/22 01:51:44;;;;;;;5.45;1.85;;;;;;;;;;2072528;28;20499;-61
2022/08/22 01:53:03;;;;;;;3.25;1.67;;;;;;;;;;2072334;28;20034;-62
2022/08/22 01:54:29;;;;;;;1.73;1.63;;;;;;;;;;2072398;28;20494;-61
2022/08/22 01:55:54;;;;;;;4.45;1.60;;;;;;;;;;2072098;28;20482;-61
2022/08/22 01:57:14;;;;;;;3.13;1.70;;;;;;;;;;2071808;28;20030;-61
2022/08/22 01:58:35;;;;;;;7.22;2.45;;;;;;;;;;2070845;28;20022;-61
2022/08/22 01:59:58;;;;;;;3.08;1.50;;;;;;;;;;2071877;28;20045;-61
2022/08/22 02:01:23;;;;;;;4.40;1.60;;;;;;;;;;2071798;28;20149;-60
2022/08/22 02:02:52;;;;;;;5.05;1.50;;;;;;;;;;2072297;28;20022;-61
2022/08/22 02:04:29;;;;;;;2.28;1.83;;;;;;;;;;2070479;28;20111;-62
2022/08/22 02:05:50;;;;;;;3.15;1.40;;;;;;;;;;2071397;28;20034;-61
2022/08/22 02:07:12;;;;;;;3.33;1.90;;;;;;;;;;2070130;28;20034;-61
2022/08/22 02:08:52;;;;;;;3.58;1.45;;;;;;;;;;2070290;28;20038;-60
2022/08/22 02:10:16;;;;;;;2.20;1.25;;;;;;;;;;2073016;28;20033;-61
2022/08/22 02:11:38;;;;;;;3.08;1.55;;;;;;;;;;2078286;28;20037;-62
2022/08/22 02:13:18;;;;;;;1.65;1.33;;;;;;;;;;2072199;28;20209;-59
2022/08/22 02:14:41;;;;;;;3.50;1.40;;;;;;;;;;2070962;28;20057;-62
2022/08/22 02:16:19;;;;;;;2.63;1.63;;;;;;;;;;2070402;28;20046;-61
2022/08/22 02:17:47;;;;;;;6.30;1.40;;;;;;;;;;2071257;28;20030;-62
2022/08/22 02:19:06;;;;;;;5.32;1.60;;;;;;;;;;2069053;28;20033;-61
2022/08/22 02:20:38;;;;;;;2.60;1.55;;;;;;;;;;2071986;28;20636;-62
2022/08/22 02:22:16;;;;;;;2.90;1.50;;;;;;;;;;2071997;28;20030;-61
2022/08/22 02:23:54;;;;;;;2.58;1.35;;;;;;;;;;2070070;28;21504;-61
2022/08/22 02:25:20;;;;;;;4.15;1.42;;;;;;;;;;2071457;28;21783;-61
2022/08/22 02:26:45;;;;;;;6.20;1.77;;;;;;;;;;2068243;28;20046;-61
2022/08/22 02:28:11;;;;;;;3.97;2.00;;;;;;;;;;2070010;28;20030;-61
2022/08/22 02:29:34;;;;;;;2.92;1.50;;;;;;;;;;2069243;28;20142;-61
2022/08/22 02:30:53;;;;;;;4.90;1.58;;;;;;;;;;2069547;28;20026;-60
2022/08/22 02:32:28;;;;;;;2.00;1.35;;;;;;;;;;2071616;28;20029;-61
2022/08/22 02:33:55;;;;;;;4.57;1.58;;;;;;;;;;2072878;28;20034;-61
2022/08/22 02:35:29;;;;;;;2.47;1.10;;;;;;;;;;2070661;28;20030;-61
2022/08/22 02:36:52;;;;;;;4.10;1.30;;;;;;;;;;2071802;28;20026;-61
2022/08/22 02:38:34;;;;;;;4.55;1.50;;;;;;;;;;2071608;28;20018;-61
2022/08/22 02:40:11;;;;;;;5.03;1.75;;;;;;;;;;2068575;28;20042;-61
2022/08/22 02:41:36;;;;;;;6.07;1.58;;;;;;;;;;2068785;28;20034;-61
2022/08/22 02:43:28;;;;;;;3.83;1.30;;;;;;;;;;2070189;28;20038;-60
2022/08/22 02:44:54;;;;;;;4.90;1.58;;;;;;;;;;2050539;28;20031;-61
2022/08/22 02:46:19;;;;;;;10.13;2.45;;;;;;;;;;2072997;28;20553;-60
2022/08/22 02:47:49;;;;;;;5.78;1.63;;;;;;;;;;2072760;28;20037;-61
2022/08/22 02:49:12;;;;;;;4.60;1.65;;;;;;;;;;2069386;28;20039;-61
2022/08/22 02:50:42;;;;;;;2.60;1.63;;;;;;;;;;2071725;28;20434;-61
2022/08/22 02:52:12;;;;;;;3.78;1.75;;;;;;;;;;2070633;28;20029;-61
2022/08/22 02:53:36;;;;;;;1.90;1.20;;;;;;;;;;2070433;28;20398;-61
2022/08/22 02:55:02;;;;;;;4.75;1.70;;;;;;;;;;2071191;28;20034;-61
2022/08/22 02:56:25;;;;;;;6.10;1.90;;;;;;;;;;2072321;28;20029;-61
2022/08/22 02:58:03;;;;;;;6.07;1.63;;;;;;;;;;2070339;28;20026;-61
2022/08/22 02:59:25;;;;;;;4.50;1.58;;;;;;;;;;2069562;28;20034;-61
2022/08/22 03:00:49;;;;;;;6.07;1.50;;;;;;;;;;2068799;28;20030;-61
2022/08/22 03:02:35;;;;;;;2.05;1.10;;;;;;;;;;2071118;28;20061;-61
2022/08/22 03:04:12;;;;;;;3.50;1.55;;;;;;;;;;2055466;28;20030;-61
2022/08/22 03:05:34;;;;;;;2.47;1.58;;;;;;;;;;2072176;28;20038;-61
2022/08/22 03:07:23;;;;;;;3.65;1.40;;;;;;;;;;2072530;28;20541;-61
2022/08/22 03:09:01;;;;;;;4.13;1.60;;;;;;;;;;2050366;28;20035;-60
2022/08/22 03:10:25;;;;;;;2.10;1.38;;;;;;;;;;2068165;28;20042;-61
2022/08/22 03:11:45;;;;;;;4.82;1.20;;;;;;;;;;2071713;28;20112;-61
2022/08/22 03:13:43;;;;;;;5.88;1.38;;;;;;;;;;2070309;28;20070;-61
2022/08/22 03:15:17;;;;;;;2.47;1.20;;;;;;;;;;2052279;28;20035;-61
2022/08/22 03:16:52;;;;;;;5.43;1.50;;;;;;;;;;2054757;28;20027;-61
2022/08/22 03:18:11;;;;;;;4.53;1.83;;;;;;;;;;2055176;28;20031;-61
2022/08/22 03:19:42;;;;;;;4.05;1.90;;;;;;;;;;2053176;28;20030;-61
2022/08/22 03:21:20;;;;;;;2.78;1.42;;;;;;;;;;2070264;28;20030;-61
2022/08/22 03:22:52;;;;;;;3.78;1.50;;;;;;;;;;2071575;28;20045;-61
2022/08/22 03:24:16;;;;;;;3.75;1.23;;;;;;;;;;2070712;28;20038;-61
2022/08/22 03:25:55;;;;;;;4.55;1.35;;;;;;;;;;2071123;28;20553;-61
2022/08/22 03:27:22;;;;;;;3.17;1.10;;;;;;;;;;2072407;28;20406;-61
2022/08/22 03:28:48;;;;;;;3.85;1.30;;;;;;;;;;2071429;28;20021;-61
2022/08/22 03:30:19;;;;;;;5.75;1.50;;;;;;;;;;2068543;28;20042;-60
2022/08/22 03:31:47;;;;;;;3.95;1.45;;;;;;;;;;2070235;28;20034;-61
2022/08/22 03:33:15;;;;;;;3.17;1.38;;;;;;;;;;2069993;28;20494;-61
2022/08/22 03:34:35;;;;;;;6.65;1.33;;;;;;;;;;2071654;28;20030;-61
2022/08/22 03:35:56;;;;;;;6.55;1.83;;;;;;;;;;2070987;28;20463;-61
2022/08/22 03:37:17;;;;;;;4.82;1.60;;;;;;;;;;2070087;28;20524;-61
2022/08/22 03:38:40;;;;;;;4.38;1.65;;;;;;;;;;2070910;28;20034;-61
2022/08/22 03:40:02;;;;;;;5.97;2.08;;;;;;;;;;2070501;28;20022;-62
2022/08/22 03:41:31;;;;;;;2.97;1.58;;;;;;;;;;2070494;28;20038;-61
2022/08/22 03:42:56;;;;;;;3.25;1.50;;;;;;;;;;2071188;28;20033;-61
2022/08/22 03:44:34;;;;;;;2.70;1.60;;;;;;;;;;2070225;28;20144;-61
2022/08/22 03:46:03;;;;;;;6.53;1.75;;;;;;;;;;2068698;28;20034;-60
2022/08/22 03:47:24;;;;;;;2.65;1.58;;;;;;;;;;2070630;28;20029;-59
2022/08/22 03:49:02;;;;;;;4.60;2.13;;;;;;;;;;2070766;28;20984;-60
2022/08/22 03:50:40;;;;;;;3.38;1.92;;;;;;;;;;2069918;28;20491;-61
2022/08/22 03:52:02;;;;;;;2.90;1.88;;;;;;;;;;2071825;28;20030;-61
2022/08/22 03:53:40;;;;;;;3.25;1.65;;;;;;;;;;2070631;28;20688;-61
2022/08/22 03:55:19;;;;;;;2.05;1.70;;;;;;;;;;2070457;28;20029;-61
2022/08/22 03:56:41;;;;;;;3.40;1.85;;;;;;;;;;2070157;28;20037;-61
2022/08/22 03:58:19;;;;;;;4.15;1.83;;;;;;;;;;2070999;28;20022;-61
2022/08/22 03:59:48;;;;;;;3.13;2.00;;;;;;;;;;2070050;28;20100;-61
2022/08/22 04:01:07;;;;;;;3.50;2.15;;;;;;;;;;2071005;28;20109;-61
2022/08/22 04:02:42;;;;;;;6.45;2.50;;;;;;;;;;2070367;28;20034;-61
2022/08/22 04:04:04;;;;;;;6.47;1.88;;;;;;;;;;2072172;28;20022;-61
2022/08/22 04:05:45;;;;;;;3.55;2.10;;;;;;;;;;2066765;28;20774;-60
2022/08/22 04:07:23;;;;;;;4.15;1.88;;;;;;;;;;2072022;28;20038;-61
2022/08/22 04:08:47;;;;;;;3.60;1.70;;;;;;;;;;2065885;28;20038;-61
2022/08/22 04:10:24;;;;;;;5.95;1.55;;;;;;;;;;2070474;28;20026;-61
2022/08/22 04:12:02;;;;;;;6.32;2.13;;;;;;;;;;2070773;28;20061;-61
2022/08/22 04:13:27;;;;;;;3.50;1.85;;;;;;;;;;2067658;28;20041;-61
2022/08/22 04:14:46;;;;;;;6.28;1.90;;;;;;;;;;2069276;28;20058;-62
2022/08/22 04:16:25;;;;;;;3.45;1.83;;;;;;;;;;2070933;28;20091;-61
2022/08/22 04:17:59;;;;;;;5.90;2.15;;;;;;;;;;2071150;28;20386;-60
2022/08/22 04:19:34;;;;;;;6.20;2.03;;;;;;;;;;2066942;28;20883;-61
2022/08/22 04:20:53;;;;;;;6.93;2.05;;;;;;;;;;2068087;28;20025;-60
2022/08/22 04:22:32;;;;;;;4.05;1.90;;;;;;;;;;2071536;28;20486;-61
2022/08/22 04:24:10;;;;;;;6.07;2.08;;;;;;;;;;2074456;28;20038;-61
2022/08/22 04:25:49;;;;;;;3.47;1.88;;;;;;;;;;2068149;28;20069;-61
2022/08/22 04:27:08;;;;;;;4.15;1.88;;;;;;;;;;2074069;28;20029;-61
2022/08/22 04:28:32;;;;;;;3.78;1.90;;;;;;;;;;2069347;28;20381;-61
2022/08/22 04:30:02;;;;;;;7.63;2.15;;;;;;;;;;2072184;28;20113;-61
2022/08/22 04:31:26;;;;;;;7.55;1.90;;;;;;;;;;2071407;28;20026;-61
2022/08/22 04:32:49;;;;;;;2.15;1.83;;;;;;;;;;2071776;28;20039;-61
2022/08/22 04:34:14;;;;;;;2.90;1.92;;;;;;;;;;2074397;28;20034;-62
2022/08/22 04:35:45;;;;;;;4.28;1.90;;;;;;;;;;2072321;28;20110;-61
2022/08/22 04:37:11;;;;;;;3.90;1.83;;;;;;;;;;2073633;28;20030;-62
2022/08/22 04:38:49;;;;;;;6.80;1.67;;;;;;;;;;2073649;28;20386;-61
2022/08/22 04:40:10;;;;;;;11.55;2.88;;;;;;;;;;2073775;28;20030;-60
2022/08/22 04:41:42;;;;;;;7.22;1.95;;;;;;;;;;2070564;28;20062;-61
2022/08/22 04:43:01;;;;;;;5.20;2.00;;;;;;;;;;2073512;28;20026;-61
2022/08/22 04:44:23;;;;;;;6.82;1.92;;;;;;;;;;2069204;28;20394;-61
2022/08/22 04:45:44;;;;;;;6.35;1.92;;;;;;;;;;2069312;28;20034;-61
2022/08/22 04:47:16;;;;;;;6.05;1.70;;;;;;;;;;2072434;28;20026;-61
2022/08/22 04:48:49;;;;;;;5.88;1.90;;;;;;;;;;2072415;28;20594;-61
2022/08/22 04:50:08;;;;;;;6.20;1.98;;;;;;;;;;2071376;28;20390;-61
2022/08/22 04:51:34;;;;;;;5.35;1.70;;;;;;;;;;2071709;28;20045;-61
2022/08/22 04:53:08;;;;;;;5.53;1.98;;;;;;;;;;2072822;28;20038;-61
2022/08/22 04:54:53;;;;;;;5.05;2.03;;;;;;;;;;2072404;28;20041;-61
2022/08/22 04:56:21;;;;;;;6.70;1.90;;;;;;;;;;2072828;28;20029;-62
2022/08/22 04:57:59;;;;;;;2.75;1.40;;;;;;;;;;2071686;28;20061;-58
2022/08/22 04:59:18;;;;;;;5.28;1.88;;;;;;;;;;2072308;28;20038;-60
2022/08/22 05:00:47;;;;;;;4.53;1.60;;;;;;;;;;2069132;28;20022;-60
2022/08/22 05:02:08;;;;;;;2.97;1.58;;;;;;;;;;2070430;28;20502;-61
2022/08/22 05:03:27;;;;;;;8.10;2.15;;;;;;;;;;2073106;28;20045;-60
2022/08/22 05:04:49;;;;;;;3.20;1.67;;;;;;;;;;2072015;28;20497;-61
2022/08/22 05:06:09;;;;;;;3.38;1.70;;;;;;;;;;2072474;28;20487;-61
2022/08/22 05:07:48;;;;;;;6.45;1.52;;;;;;;;;;2071381;28;20037;-61
2022/08/22 05:09:11;;;;;;;7.97;1.88;;;;;;;;;;2071176;28;20025;-61
2022/08/22 05:10:39;;;;;;;3.08;1.38;;;;;;;;;;2070759;28;20034;-61
2022/08/22 05:12:10;;;;;;;3.50;1.67;;;;;;;;;;2071669;28;20033;-61
2022/08/22 05:13:32;;;;;;;2.97;1.50;;;;;;;;;;2071014;28;20038;-61
2022/08/22 05:14:54;;;;;;;5.10;1.63;;;;;;;;;;2071263;28;20113;-61
2022/08/22 05:16:18;;;;;;;2.95;1.40;;;;;;;;;;2072561;28;20034;-61
2022/08/22 05:17:37;;;;;;;3.60;2.00;;;;;;;;;;2071962;28;20026;-61
2022/08/22 05:19:02;;;;;;;5.85;1.77;;;;;;;;;;2072324;28;20490;-60
2022/08/22 05:20:22;;;;;;;5.28;1.83;;;;;;;;;;2072503;28;20124;-61
2022/08/22 05:21:41;;;;;;;4.18;1.73;;;;;;;;;;2070210;28;20022;-61
2022/08/22 05:23:05;;;;;;;7.60;1.75;;;;;;;;;;2071567;28;20343;-61
2022/08/22 05:24:31;;;;;;;4.40;1.73;;;;;;;;;;2071436;28;20041;-62
2022/08/22 05:25:52;;;;;;;6.28;1.90;;;;;;;;;;2071690;28;20480;-60
2022/08/22 05:27:17;;;;;;;6.95;1.70;;;;;;;;;;2070521;28;20034;-61
2022/08/22 05:28:36;;;;;;;4.70;1.45;;;;;;;;;;2072244;28;20490;-61
2022/08/22 05:30:08;;;;;;;6.82;2.00;;;;;;;;;;2070634;28;20038;-61
2022/08/22 05:31:30;;;;;;;6.53;1.38;;;;;;;;;;2070950;28;20045;-61
2022/08/22 05:33:08;;;;;;;5.40;1.65;;;;;;;;;;2071408;28;20034;-61
2022/08/22 05:34:29;;;;;;;4.13;1.33;;;;;;;;;;2068346;28;20108;-62
2022/08/22 05:35:53;;;;;;;5.03;1.80;;;;;;;;;;2071638;28;21302;-69
2022/08/22 05:37:16;;;;;;;3.55;1.83;;;;;;;;;;2072703;28;20042;-70
2022/08/22 05:38:40;;;;;;;5.80;1.50;;;;;;;;;;2071929;28;20034;-69
2022/08/22 05:40:00;;;;;;;7.65;1.75;;;;;;;;;;2072016;28;20026;-70
2022/08/22 05:41:22;;;;;;;8.10;1.95;;;;;;;;;;2071098;28;20065;-70
2022/08/22 05:42:41;;;;;;;4.72;1.45;;;;;;;;;;2078525;28;20470;-68
2022/08/22 05:44:01;;;;;;;5.15;1.60;;;;;;;;;;2075370;28;20434;-69
2022/08/22 05:45:20;;;;;;;4.63;1.80;;;;;;;;;;2071044;28;20049;-68
2022/08/22 05:46:44;;;;;;;3.95;1.50;;;;;;;;;;2070122;28;20022;-68
2022/08/22 05:48:20;;;;;;;6.13;1.60;;;;;;;;;;2072994;28;20030;-68
2022/08/22 05:49:45;;;;;;;7.28;1.98;;;;;;;;;;2071167;28;20029;-70
2022/08/22 05:51:10;;;;;;;4.53;1.83;;;;;;;;;;2069817;28;20026;-71
2022/08/22 05:52:29;;;;;;;5.05;1.85;;;;;;;;;;2067953;28;20038;-70
2022/08/22 05:53:51;;;;;;;5.18;1.60;;;;;;;;;;2072764;28;20026;-70
2022/08/22 05:55:10;;;;;;;2.88;1.42;;;;;;;;;;2073162;28;20493;-70
2022/08/22 05:56:56;;;;;;;4.30;1.55;;;;;;;;;;2072289;28;20033;-72
2022/08/22 05:58:30;;;;;;;6.13;1.60;;;;;;;;;;2069440;28;20057;-71
2022/08/22 05:59:53;;;;;;;4.28;1.85;;;;;;;;;;2073210;28;20030;-68
2022/08/22 06:01:24;;;;;;;5.50;1.60;;;;;;;;;;2068500;28;20109;-68
2022/08/22 06:02:55;;;;;;;3.28;1.38;;;;;;;;;;2071795;28;20026;-67
2022/08/22 06:04:20;;;;;;;6.68;1.50;;;;;;;;;;2072439;28;20038;-69
2022/08/22 06:05:41;;;;;;;5.72;1.48;;;;;;;;;;2073288;28;20463;-69
2022/08/22 06:07:16;;;;;;;9.93;1.92;;;;;;;;;;2071738;28;20030;-69
2022/08/22 06:08:38;;;;;;;4.05;1.40;;;;;;;;;;2072813;28;20042;-68
2022/08/22 06:10:04;;;;;;;3.33;1.67;;;;;;;;;;2072637;28;20030;-70
2022/08/22 06:11:26;;;;;;;5.60;1.50;;;;;;;;;;2072302;28;20054;-65
2022/08/22 06:13:04;;;;;;;7.60;1.73;;;;;;;;;;2071896;28;20030;-65
2022/08/22 06:14:29;;;;;;;9.70;1.67;;;;;;;;;;2072905;28;20342;-64
2022/08/22 06:15:52;;;;;;;5.95;1.70;;;;;;;;;;2072048;28;20398;-64
2022/08/22 06:17:43;;;;;;;7.93;2.40;;;;;;;;;;2070596;28;20034;-64
2022/08/22 06:19:03;;;;;;;6.10;1.80;;;;;;;;;;2090613;23;20082;-80
2022/08/22 06:20:24;;;;;;;7.43;2.03;;;;;;;;;;2062710;28;20035;-80
2022/08/22 06:21:45;;;;;;;5.25;1.80;;;;;;;;;;2066556;28;20443;-80
2022/08/22 06:23:06;;;;;;;6.57;1.70;;;;;;;;;;2070339;28;20034;-80
2022/08/22 06:24:26;;;;;;;4.18;1.52;;;;;;;;;;2068186;28;20034;-81
2022/08/22 06:25:46;;;;;;;7.03;1.73;;;;;;;;;;2062512;28;20042;-80
2022/08/22 06:27:10;;;;;;;7.38;1.60;;;;;;;;;;2062184;28;20030;-80
2022/08/22 06:28:32;;;;;;;7.32;1.65;;;;;;;;;;2064957;28;20419;-80
2022/08/22 06:29:57;;;;;;;6.88;1.50;;;;;;;;;;2066814;28;20034;-80
2022/08/22 06:31:18;;;;;;;6.82;1.70;;;;;;;;;;2071167;28;20042;-80
2022/08/22 06:32:40;;;;;;;9.45;2.10;;;;;;;;;;2068365;28;20026;-80
2022/08/22 06:34:10;;;;;;;8.38;1.95;;;;;;;;;;2063120;28;20035;-80
2022/08/22 06:36:29;;;;;;;6.45;1.70;;;;;;;;;;2060882;28;20030;-79
2022/08/22 06:37:13;;;;;;;;;;;;;;;;;;2068671;28;20114;-80
2022/08/22 06:38:50;;;;;;;5.13;1.60;;;;;;;;;;2060816;28;19913;-80
2022/08/22 06:40:11;;;;;;;4.97;1.75;;;;;;;;;;2068308;28;20030;-80
2022/08/22 06:41:33;;;;;;;6.00;1.60;;;;;;;;;;2067447;28;20025;-80
2022/08/22 06:42:53;;;;;;;6.13;1.80;;;;;;;;;;2062803;28;20038;-80
2022/08/22 06:44:13;;;;;;;5.30;1.73;;;;;;;;;;2065934;28;20065;-80
2022/08/22 06:45:33;;;;;;;4.07;1.35;;;;;;;;;;2070522;28;20065;-81
2022/08/22 06:46:53;;;;;;;8.25;1.40;;;;;;;;;;2069246;28;20034;-80
2022/08/22 06:48:15;;;;;;;7.30;1.98;;;;;;;;;;2067987;28;20030;-81
2022/08/22 06:49:35;;;;;;;5.15;1.90;;;;;;;;;;2071331;28;20029;-80
2022/08/22 06:50:57;;;;;;;5.95;1.58;;;;;;;;;;2061979;28;20042;-80
2022/08/22 06:52:19;;;;;;;5.82;1.58;;;;;;;;;;2059437;28;20576;-81
2022/08/22 06:53:41;;;;;;;4.15;1.30;;;;;;;;;;2059118;28;20030;-80
2022/08/22 06:55:04;;;;;;;8.52;1.90;;;;;;;;;;2061614;28;20034;-81
2022/08/22 06:56:24;;;;;;;6.32;1.52;;;;;;;;;;2067999;28;20034;-82
2022/08/22 06:57:55;;;;;;;4.07;1.30;;;;;;;;;;2054678;28;20031;-82
2022/08/22 06:59:16;;;;;;;5.40;1.48;;;;;;;;;;2056776;28;20031;-82
2022/08/22 07:00:34;;;;;;;6.82;1.90;;;;;;;;;;2062804;28;20018;-82
2022/08/22 07:02:00;;;;;;;7.35;1.50;;;;;;;;;;2063314;28;20058;-83
2022/08/22 07:03:19;;;;;;;9.45;1.73;;;;;;;;;;2058257;28;20503;-82
2022/08/22 07:04:38;;;;;;;6.30;1.40;;;;;;;;;;2064698;28;20546;-83
2022/08/22 07:05:58;;;;;;;5.28;1.63;;;;;;;;;;2062944;28;20113;-83
2022/08/22 07:07:18;;;;;;;7.32;1.40;;;;;;;;;;2065425;28;20037;-83
2022/08/22 07:08:38;;;;;;;5.80;1.80;;;;;;;;;;2062523;28;20031;-83
2022/08/22 07:09:57;;;;;;;6.20;1.60;;;;;;;;;;2061817;28;20030;-83
2022/08/22 07:11:20;;;;;;;5.63;1.55;;;;;;;;;;2061751;28;20027;-83
2022/08/22 07:12:43;;;;;;;4.15;1.40;;;;;;;;;;2063877;28;20535;-83
2022/08/22 07:14:07;;;;;;;4.28;1.42;;;;;;;;;;2058195;28;20512;-82
2022/08/22 07:15:33;;;;;;;7.88;1.35;;;;;;;;;;2065784;28;20034;-83
2022/08/22 07:17:03;;;;;;;3.70;1.40;;;;;;;;;;2064820;28;20026;-83
2022/08/22 07:18:24;;;;;;;7.07;1.38;;;;;;;;;;2063376;28;20030;-83
2022/08/22 07:19:58;;;;;;;6.20;1.42;;;;;;;;;;2070740;28;20057;-83
2022/08/22 07:21:43;;;;;;;5.25;1.45;;;;;;;;;;2059469;28;20034;-83
2022/08/22 07:23:10;;;;;;;6.70;1.45;;;;;;;;;;2061348;28;20034;-83
2022/08/22 07:24:31;;;;;;;8.95;2.00;;;;;;;;;;2066588;28;20137;-83
2022/08/22 07:25:58;;;;;;;9.60;1.70;;;;;;;;;;2068230;28;20082;-83
2022/08/22 07:27:38;;;;;;;2.42;1.40;;;;;;;;;;2067238;28;20483;-82
2022/08/22 07:29:14;;;;;;;7.03;1.60;;;;;;;;;;2066153;28;20042;-81
2022/08/22 07:30:46;;;;;;;4.43;1.15;;;;;;;;;;2061834;28;20101;-82
2022/08/22 07:32:10;;;;;;;5.10;1.35;;;;;;;;;;2060284;28;20035;-83
2022/08/22 07:33:45;;;;;;;7.05;1.67;;;;;;;;;;2066866;28;20038;-83
2022/08/22 07:35:16;;;;;;;4.40;1.30;;;;;;;;;;2069300;28;20547;-83
2022/08/22 07:36:41;;;;;;;3.22;1.27;;;;;;;;;;2069475;28;20029;-83
2022/08/22 07:38:00;;;;;;;6.28;1.70;;;;;;;;;;2063114;28;20019;-83
2022/08/22 07:39:32;;;;;;;6.65;1.55;;;;;;;;;;2059298;28;20030;-83
2022/08/22 07:40:51;;;;;;;3.65;1.30;;;;;;;;;;2066932;28;20402;-82
2022/08/22 07:42:23;;;;;;;3.25;1.40;;;;;;;;;;2068100;28;20023;-83
2022/08/22 07:43:51;;;;;;;5.82;1.73;;;;;;;;;;2072705;28;20034;-82
2022/08/22 07:45:14;;;;;;;8.02;2.05;;;;;;;;;;2064498;28;20031;-81
2022/08/22 07:46:36;;;;;;;6.53;1.20;;;;;;;;;;2069504;28;20018;-83
2022/08/22 07:47:58;;;;;;;5.47;1.70;;;;;;;;;;2064506;28;20027;-82
2022/08/22 07:49:22;;;;;;;5.95;1.70;;;;;;;;;;2063753;28;20030;-83
2022/08/22 07:50:51;;;;;;;3.63;1.20;;;;;;;;;;2068024;28;20030;-82
2022/08/22 07:52:12;;;;;;;5.03;1.33;;;;;;;;;;2065377;28;20058;-82
2022/08/22 07:53:38;;;;;;;3.70;1.00;;;;;;;;;;2063109;28;20042;-82
2022/08/22 07:55:05;;;;;;;5.75;1.25;;;;;;;;;;2059407;28;20019;-82
2022/08/22 07:56:45;;;;;;;5.47;1.38;;;;;;;;;;2066535;28;20030;-82
2022/08/22 07:58:05;;;;;;;4.15;1.40;;;;;;;;;;2069795;28;20057;-83
2022/08/22 07:59:29;;;;;;;4.28;1.30;;;;;;;;;;2067872;28;20007;-82
2022/08/22 08:00:49;;;;;;;5.13;1.67;;;;;;;;;;2070276;28;20027;-82
2022/08/22 08:02:10;;;;;;;3.47;1.75;;;;;;;;;;2061625;28;20042;-82
2022/08/22 08:03:30;;;;;;;4.65;1.90;;;;;;;;;;2065759;28;20026;-82
2022/08/22 08:04:51;;;;;;;3.58;1.20;;;;;;;;;;2069338;28;20026;-82
2022/08/22 08:06:10;;;;;;;8.43;1.50;;;;;;;;;;2060713;28;20102;-82
2022/08/22 08:07:30;;;;;;;4.57;1.30;;;;;;;;;;2066673;28;20042;-82
2022/08/22 08:08:50;;;;;;;5.47;1.27;;;;;;;;;;2070218;28;20483;-82
2022/08/22 08:10:13;;;;;;;4.18;1.13;;;;;;;;;;2067824;28;20041;-82
2022/08/22 08:11:38;;;;;;;3.92;1.50;;;;;;;;;;2070215;28;20510;-81
2022/08/22 08:12:59;;;;;;;6.20;1.23;;;;;;;;;;2065403;28;20050;-82
2022/08/22 08:14:19;;;;;;;4.18;1.33;;;;;;;;;;2066437;28;20060;-80
2022/08/22 08:15:39;;;;;;;5.75;1.40;;;;;;;;;;2059465;28;20023;-80
2022/08/22 08:17:09;;;;;;;8.93;1.40;;;;;;;;;;2065710;28;20042;-81
2022/08/22 08:18:30;;;;;;;4.80;1.17;;;;;;;;;;2068319;28;20043;-80
2022/08/22 08:19:50;;;;;;;4.60;1.40;;;;;;;;;;2059517;28;20531;-80
2022/08/22 08:21:23;;;;;;;4.60;1.30;;;;;;;;;;2056984;28;20027;-82
2022/08/22 08:22:43;;;;;;;6.03;1.45;;;;;;;;;;2065132;28;20086;-82
2022/08/22 08:24:05;;;;;;;9.00;1.13;;;;;;;;;;2067949;28;20030;-82
2022/08/22 08:25:29;;;;;;;5.70;1.00;;;;;;;;;;2068009;28;20046;-82
2022/08/22 08:28:34;;;;;;;8.23;1.55;;;;;;;;;;2069073;28;20498;-82
2022/08/22 08:29:58;;;;;;;3.10;1.27;;;;;;;;;;2066391;28;20022;-81
2022/08/22 08:31:23;;;;;;;5.55;1.45;;;;;;;;;;2061174;28;20026;-82
2022/08/22 08:32:47;;;;;;;4.25;1.20;;;;;;;;;;2066377;28;20035;-82
2022/08/22 08:34:08;;;;;;;3.55;1.23;;;;;;;;;;2061116;28;20109;-81
2022/08/22 08:35:28;;;;;;;3.80;1.00;;;;;;;;;;2065048;28;20030;-81
2022/08/22 08:36:52;;;;;;;3.33;1.23;;;;;;;;;;2067840;28;20070;-82
2022/08/22 08:38:15;;;;;;;2.67;0.80;;;;;;;;;;2065347;28;20050;-82
2022/08/22 08:39:35;;;;;;;4.23;1.10;;;;;;;;;;2066033;28;20034;-82
2022/08/22 08:41:13;;;;;;;4.28;1.25;;;;;;;;;;2056205;28;20332;-82
2022/08/22 08:43:26;;;;;;;6.47;1.48;;;;;;;;;;2060794;28;20787;-82
2022/08/22 08:44:25;;;;;;;7.47;1.30;;;;;;;;;;2067988;28;20034;-82
2022/08/22 08:45:44;;;;;;;5.93;1.40;;;;;;;;;;2059104;28;20035;-82